McCook, NE

7:56 AM CST on January 19, 2017 (GMT -0600)
KNEMCCOO2 | | Change Station
Active Advisory: Dense Fog Advisory

Elev 2609 ft 40.21 °N, 100.64 °W | Updated 6 minutes ago

Overcast
Overcast
34.9 °F
Feels Like 35 °F
N
0.0
Wind Variable Wind from SSW
Gusts 0.0 mph

Today
High -- | Low -- °F
--% Chance of Precip.
Yesterday
High -- | Low -- °F
Precip. -- in
Pressure 29.69 in
Visibility 1.0 miles
Clouds Overcast 200 ft
Windchill 35 °F
Dew Point 33 °F
Humidity 93%
Rainfall 0.00 in
Snow Depth Not available.
8:00 AM 5:46 PM
Waning Gibbous, 53% visible
METAR KMCK 191353Z AUTO 24004KT 1SM BR OVC002 02/02 A2964 RMK AO2 SLP052 T00170017
Pressure 29.69 in
Visibility 1.0 miles
Clouds Overcast 200 ft
Windchill 35 °F
Dew Point 33 °F
Humidity 93%
Rainfall 0.00 in
Snow Depth Not available.
8:00 AM 5:46 PM
Waning Gibbous, 53% visible
METAR KMCK 191353Z AUTO 24004KT 1SM BR OVC002 02/02 A2964 RMK AO2 SLP052 T00170017

Get Your Daily Forecast Email!

Thanks for signing up!

Be on the lookout for a verification email in your inbox.

You'll start receiving the daily forecast at 8 AM.

×

10-Day Weather Forecast

Almanac

Astronomy

Jan. 19, 2017 Rise Set
Actual Time
Civil Twilight
Nautical Twilight
Astronomical Twilight
Moon
Length of Visible Light
Length of Day
Tomorrow will be .
, % of the Moon is Illuminated

Today's Extremes

State Highs State Lows

Community

WunderPhotos

Upload Photos

1,962,540 photos uploaded!

WunderBlog® & News

Nearby

Air Quality

  Air Quality AQ Index Pollutant
Not available.

Snow Depth

Station Depth Elevation

Earthquake Activity

City Distance Mag. Time & Date
Minimum magnitude displayed is 2.5.

Coastal Water Temperatures

Place Temperature

Stations

Nearby Weather Stations

Station Location Temp. Windchill Dew Point Humidity Wind Precip. Elev Updated Type
                   

Watches & Warnings

Dense Fog Advisory
Issued: 6:25 AM CST Jan. 19, 2017 – National Weather Service

... Dense fog advisory remains in effect until 11 am MST /noon
CST/ this morning...

* impacts... freezing fog will develop for some locations...
creating a glaze of ice on roadways. Visibilities will fall to
a quarter mile... with rapidly changing visibilities likely on
the west edge of the dense fog... specifically the Highway 25
corridor.

* Timing/duration... quarter mile visibilities will reach a maximum
extend by 6 am CST. Visibilities will gradually improve during
the late morning... although some slight reductions in
visibility may linger until noon CST.

Precautionary/preparedness actions...

A dense fog advisory means visibility will frequently be one
quarter mile or less in fog. If driving... slow down and be
prepared for sudden drops in visibility... especially near
rivers... creeks and low lying areas. Use your headlights on low
beams and drive defensively.